sensor_id;sensor_type;location;lat;lon;timestamp;P1;durP1;ratioP1;P2;durP2;ratioP2
2934;SDS011;2462;51.456;7.248;2022-07-22T00:02:05;7.87;;;6.37;;
2934;SDS011;2462;51.456;7.248;2022-07-22T00:04:31;7.97;;;7.27;;
2934;SDS011;2462;51.456;7.248;2022-07-22T00:06:57;7.40;;;6.70;;
2934;SDS011;2462;51.456;7.248;2022-07-22T00:09:23;7.97;;;6.20;;
2934;SDS011;2462;51.456;7.248;2022-07-22T00:11:48;7.27;;;6.40;;
2934;SDS011;2462;51.456;7.248;2022-07-22T00:14:14;7.10;;;6.40;;
2934;SDS011;2462;51.456;7.248;2022-07-22T00:16:40;6.20;;;5.60;;
2934;SDS011;2462;51.456;7.248;2022-07-22T00:19:05;5.13;;;4.53;;
2934;SDS011;2462;51.456;7.248;2022-07-22T00:21:31;4.40;;;3.10;;
2934;SDS011;2462;51.456;7.248;2022-07-22T00:23:56;4.07;;;2.87;;
2934;SDS011;2462;51.456;7.248;2022-07-22T00:26:22;4.60;;;3.83;;
2934;SDS011;2462;51.456;7.248;2022-07-22T00:28:48;4.80;;;4.40;;
2934;SDS011;2462;51.456;7.248;2022-07-22T00:31:13;9.70;;;6.20;;
2934;SDS011;2462;51.456;7.248;2022-07-22T00:33:39;9.03;;;5.87;;
2934;SDS011;2462;51.456;7.248;2022-07-22T00:36:04;5.60;;;5.07;;
2934;SDS011;2462;51.456;7.248;2022-07-22T00:38:31;8.60;;;6.20;;
2934;SDS011;2462;51.456;7.248;2022-07-22T00:40:57;11.63;;;6.93;;
2934;SDS011;2462;51.456;7.248;2022-07-22T00:43:22;7.97;;;7.17;;
2934;SDS011;2462;51.456;7.248;2022-07-22T00:45:48;8.23;;;7.43;;
2934;SDS011;2462;51.456;7.248;2022-07-22T00:48:13;9.87;;;6.93;;
2934;SDS011;2462;51.456;7.248;2022-07-22T00:50:39;6.97;;;6.30;;
2934;SDS011;2462;51.456;7.248;2022-07-22T00:53:06;6.47;;;5.87;;
2934;SDS011;2462;51.456;7.248;2022-07-22T00:55:32;6.13;;;5.53;;
2934;SDS011;2462;51.456;7.248;2022-07-22T00:57:58;12.63;;;6.17;;
2934;SDS011;2462;51.456;7.248;2022-07-22T01:00:24;6.00;;;5.40;;
2934;SDS011;2462;51.456;7.248;2022-07-22T01:02:49;5.67;;;5.07;;
2934;SDS011;2462;51.456;7.248;2022-07-22T01:05:15;7.63;;;5.37;;
2934;SDS011;2462;51.456;7.248;2022-07-22T01:07:42;6.90;;;5.83;;
2934;SDS011;2462;51.456;7.248;2022-07-22T01:10:08;14.53;;;5.97;;
2934;SDS011;2462;51.456;7.248;2022-07-22T01:12:35;6.43;;;4.87;;
2934;SDS011;2462;51.456;7.248;2022-07-22T01:15:01;7.77;;;5.80;;
2934;SDS011;2462;51.456;7.248;2022-07-22T01:17:26;9.47;;;5.40;;
2934;SDS011;2462;51.456;7.248;2022-07-22T01:19:52;5.43;;;4.83;;
2934;SDS011;2462;51.456;7.248;2022-07-22T01:22:18;6.30;;;4.50;;
2934;SDS011;2462;51.456;7.248;2022-07-22T01:24:43;5.93;;;5.33;;
2934;SDS011;2462;51.456;7.248;2022-07-22T01:27:09;7.63;;;5.40;;
2934;SDS011;2462;51.456;7.248;2022-07-22T01:29:34;5.47;;;4.90;;
2934;SDS011;2462;51.456;7.248;2022-07-22T01:32:00;6.37;;;4.60;;
2934;SDS011;2462;51.456;7.248;2022-07-22T01:34:25;7.13;;;5.90;;
2934;SDS011;2462;51.456;7.248;2022-07-22T01:36:51;11.63;;;6.23;;
2934;SDS011;2462;51.456;7.248;2022-07-22T01:39:17;9.07;;;6.00;;
2934;SDS011;2462;51.456;7.248;2022-07-22T01:41:42;7.43;;;6.60;;
2934;SDS011;2462;51.456;7.248;2022-07-22T01:44:08;9.13;;;6.00;;
2934;SDS011;2462;51.456;7.248;2022-07-22T01:46:34;7.70;;;5.60;;
2934;SDS011;2462;51.456;7.248;2022-07-22T01:49:00;10.57;;;6.47;;
2934;SDS011;2462;51.456;7.248;2022-07-22T01:51:25;9.57;;;6.30;;
2934;SDS011;2462;51.456;7.248;2022-07-22T01:53:51;13.00;;;6.60;;
2934;SDS011;2462;51.456;7.248;2022-07-22T01:56:16;11.30;;;5.83;;
2934;SDS011;2462;51.456;7.248;2022-07-22T01:58:42;8.33;;;6.17;;
2934;SDS011;2462;51.456;7.248;2022-07-22T02:01:08;9.43;;;5.80;;
2934;SDS011;2462;51.456;7.248;2022-07-22T02:03:34;8.53;;;5.23;;
2934;SDS011;2462;51.456;7.248;2022-07-22T02:05:59;5.90;;;5.10;;
2934;SDS011;2462;51.456;7.248;2022-07-22T02:08:25;10.73;;;5.67;;
2934;SDS011;2462;51.456;7.248;2022-07-22T02:10:50;10.30;;;6.40;;
2934;SDS011;2462;51.456;7.248;2022-07-22T02:13:16;8.43;;;5.83;;
2934;SDS011;2462;51.456;7.248;2022-07-22T02:15:42;9.60;;;7.40;;
2934;SDS011;2462;51.456;7.248;2022-07-22T02:18:15;11.33;;;7.07;;
2934;SDS011;2462;51.456;7.248;2022-07-22T02:20:42;7.47;;;6.70;;
2934;SDS011;2462;51.456;7.248;2022-07-22T02:23:08;12.87;;;6.50;;
2934;SDS011;2462;51.456;7.248;2022-07-22T02:25:33;7.77;;;5.27;;
2934;SDS011;2462;51.456;7.248;2022-07-22T02:27:59;7.10;;;5.27;;
2934;SDS011;2462;51.456;7.248;2022-07-22T02:30:25;6.60;;;5.60;;
2934;SDS011;2462;51.456;7.248;2022-07-22T02:32:51;7.77;;;6.50;;
2934;SDS011;2462;51.456;7.248;2022-07-22T02:35:17;8.67;;;5.50;;
2934;SDS011;2462;51.456;7.248;2022-07-22T02:37:43;7.73;;;5.30;;
2934;SDS011;2462;51.456;7.248;2022-07-22T02:40:08;10.73;;;5.10;;
2934;SDS011;2462;51.456;7.248;2022-07-22T02:42:34;8.90;;;6.17;;
2934;SDS011;2462;51.456;7.248;2022-07-22T02:45:00;9.70;;;5.73;;
2934;SDS011;2462;51.456;7.248;2022-07-22T02:47:26;13.43;;;6.07;;
2934;SDS011;2462;51.456;7.248;2022-07-22T02:49:52;7.00;;;5.50;;
2934;SDS011;2462;51.456;7.248;2022-07-22T02:52:18;10.20;;;5.77;;
2934;SDS011;2462;51.456;7.248;2022-07-22T02:54:43;7.23;;;4.93;;
2934;SDS011;2462;51.456;7.248;2022-07-22T02:57:09;8.07;;;5.47;;
2934;SDS011;2462;51.456;7.248;2022-07-22T02:59:34;10.10;;;6.30;;
2934;SDS011;2462;51.456;7.248;2022-07-22T03:02:00;9.47;;;5.50;;
2934;SDS011;2462;51.456;7.248;2022-07-22T03:04:26;11.40;;;7.07;;
2934;SDS011;2462;51.456;7.248;2022-07-22T03:06:51;11.93;;;7.07;;
2934;SDS011;2462;51.456;7.248;2022-07-22T03:09:17;9.73;;;6.53;;
2934;SDS011;2462;51.456;7.248;2022-07-22T03:11:43;8.33;;;6.07;;
2934;SDS011;2462;51.456;7.248;2022-07-22T03:14:08;8.00;;;5.60;;
2934;SDS011;2462;51.456;7.248;2022-07-22T03:16:34;7.20;;;5.00;;
2934;SDS011;2462;51.456;7.248;2022-07-22T03:18:59;7.33;;;4.17;;
2934;SDS011;2462;51.456;7.248;2022-07-22T03:21:25;6.50;;;4.60;;
2934;SDS011;2462;51.456;7.248;2022-07-22T03:23:50;11.10;;;3.10;;
2934;SDS011;2462;51.456;7.248;2022-07-22T03:26:18;6.10;;;3.70;;
2934;SDS011;2462;51.456;7.248;2022-07-22T03:28:45;5.07;;;2.87;;
2934;SDS011;2462;51.456;7.248;2022-07-22T03:31:11;6.10;;;3.03;;
2934;SDS011;2462;51.456;7.248;2022-07-22T03:33:37;8.77;;;3.17;;
2934;SDS011;2462;51.456;7.248;2022-07-22T03:36:03;5.70;;;3.17;;
2934;SDS011;2462;51.456;7.248;2022-07-22T03:38:30;5.93;;;3.50;;
2934;SDS011;2462;51.456;7.248;2022-07-22T03:40:56;5.73;;;3.37;;
2934;SDS011;2462;51.456;7.248;2022-07-22T03:43:22;6.97;;;3.33;;
2934;SDS011;2462;51.456;7.248;2022-07-22T03:45:47;6.90;;;4.30;;
2934;SDS011;2462;51.456;7.248;2022-07-22T03:48:13;7.40;;;4.03;;
2934;SDS011;2462;51.456;7.248;2022-07-22T03:50:38;6.90;;;3.43;;
2934;SDS011;2462;51.456;7.248;2022-07-22T03:53:04;12.33;;;4.60;;
2934;SDS011;2462;51.456;7.248;2022-07-22T03:55:29;4.93;;;3.80;;
2934;SDS011;2462;51.456;7.248;2022-07-22T03:57:55;6.37;;;3.90;;
2934;SDS011;2462;51.456;7.248;2022-07-22T04:00:20;8.60;;;4.23;;
2934;SDS011;2462;51.456;7.248;2022-07-22T04:02:46;8.80;;;4.70;;
2934;SDS011;2462;51.456;7.248;2022-07-22T04:05:11;7.37;;;3.43;;
2934;SDS011;2462;51.456;7.248;2022-07-22T04:07:37;5.50;;;3.90;;
2934;SDS011;2462;51.456;7.248;2022-07-22T04:10:03;4.83;;;3.80;;
2934;SDS011;2462;51.456;7.248;2022-07-22T04:12:32;7.23;;;3.97;;
2934;SDS011;2462;51.456;7.248;2022-07-22T04:15:02;8.77;;;4.10;;
2934;SDS011;2462;51.456;7.248;2022-07-22T04:17:29;6.90;;;3.63;;
2934;SDS011;2462;51.456;7.248;2022-07-22T04:19:55;8.50;;;3.77;;
2934;SDS011;2462;51.456;7.248;2022-07-22T04:22:20;6.70;;;4.10;;
2934;SDS011;2462;51.456;7.248;2022-07-22T04:24:46;7.47;;;5.00;;
2934;SDS011;2462;51.456;7.248;2022-07-22T04:27:12;7.37;;;4.63;;
2934;SDS011;2462;51.456;7.248;2022-07-22T04:29:37;10.47;;;4.30;;
2934;SDS011;2462;51.456;7.248;2022-07-22T04:32:03;11.43;;;3.90;;
2934;SDS011;2462;51.456;7.248;2022-07-22T04:34:28;7.83;;;4.37;;
2934;SDS011;2462;51.456;7.248;2022-07-22T04:36:54;7.23;;;4.20;;
2934;SDS011;2462;51.456;7.248;2022-07-22T04:39:20;11.37;;;4.27;;
2934;SDS011;2462;51.456;7.248;2022-07-22T04:41:45;5.80;;;3.10;;
2934;SDS011;2462;51.456;7.248;2022-07-22T04:44:11;7.83;;;3.60;;
2934;SDS011;2462;51.456;7.248;2022-07-22T04:46:36;4.33;;;3.00;;
2934;SDS011;2462;51.456;7.248;2022-07-22T04:49:02;4.30;;;3.20;;
2934;SDS011;2462;51.456;7.248;2022-07-22T04:51:27;7.07;;;3.73;;
2934;SDS011;2462;51.456;7.248;2022-07-22T04:53:53;7.37;;;4.77;;
2934;SDS011;2462;51.456;7.248;2022-07-22T04:56:20;7.47;;;3.87;;
2934;SDS011;2462;51.456;7.248;2022-07-22T04:58:46;5.93;;;3.73;;
2934;SDS011;2462;51.456;7.248;2022-07-22T05:01:11;6.50;;;3.53;;
2934;SDS011;2462;51.456;7.248;2022-07-22T05:03:38;7.87;;;3.50;;
2934;SDS011;2462;51.456;7.248;2022-07-22T05:06:04;5.40;;;3.43;;
2934;SDS011;2462;51.456;7.248;2022-07-22T05:08:30;6.67;;;3.60;;
2934;SDS011;2462;51.456;7.248;2022-07-22T05:10:55;8.00;;;3.60;;
2934;SDS011;2462;51.456;7.248;2022-07-22T05:13:21;5.53;;;3.53;;
2934;SDS011;2462;51.456;7.248;2022-07-22T05:15:46;5.00;;;3.40;;
2934;SDS011;2462;51.456;7.248;2022-07-22T05:18:12;6.10;;;3.47;;
2934;SDS011;2462;51.456;7.248;2022-07-22T05:20:37;8.27;;;3.80;;
2934;SDS011;2462;51.456;7.248;2022-07-22T05:23:03;6.33;;;3.23;;
2934;SDS011;2462;51.456;7.248;2022-07-22T05:25:28;5.57;;;3.90;;
2934;SDS011;2462;51.456;7.248;2022-07-22T05:27:54;10.60;;;4.53;;
2934;SDS011;2462;51.456;7.248;2022-07-22T05:30:20;7.37;;;4.03;;
2934;SDS011;2462;51.456;7.248;2022-07-22T05:32:46;4.70;;;3.83;;
2934;SDS011;2462;51.456;7.248;2022-07-22T05:35:12;8.63;;;4.00;;
2934;SDS011;2462;51.456;7.248;2022-07-22T05:37:38;11.33;;;4.10;;
2934;SDS011;2462;51.456;7.248;2022-07-22T05:40:03;5.67;;;3.60;;
2934;SDS011;2462;51.456;7.248;2022-07-22T05:42:30;8.80;;;4.13;;
2934;SDS011;2462;51.456;7.248;2022-07-22T05:44:55;7.37;;;4.30;;
2934;SDS011;2462;51.456;7.248;2022-07-22T05:47:21;5.13;;;3.60;;
2934;SDS011;2462;51.456;7.248;2022-07-22T05:49:47;5.40;;;4.00;;
2934;SDS011;2462;51.456;7.248;2022-07-22T05:52:13;6.07;;;3.70;;
2934;SDS011;2462;51.456;7.248;2022-07-22T05:54:38;8.90;;;4.20;;
2934;SDS011;2462;51.456;7.248;2022-07-22T05:57:04;6.87;;;3.70;;
2934;SDS011;2462;51.456;7.248;2022-07-22T05:59:33;4.70;;;3.90;;
2934;SDS011;2462;51.456;7.248;2022-07-22T06:01:58;5.30;;;3.23;;
2934;SDS011;2462;51.456;7.248;2022-07-22T06:04:24;3.93;;;3.53;;
2934;SDS011;2462;51.456;7.248;2022-07-22T06:06:51;9.63;;;3.83;;
2934;SDS011;2462;51.456;7.248;2022-07-22T06:09:16;5.30;;;3.70;;
2934;SDS011;2462;51.456;7.248;2022-07-22T06:11:42;3.23;;;2.90;;
2934;SDS011;2462;51.456;7.248;2022-07-22T06:14:07;5.27;;;2.63;;
2934;SDS011;2462;51.456;7.248;2022-07-22T06:16:33;9.10;;;3.77;;
2934;SDS011;2462;51.456;7.248;2022-07-22T06:18:59;7.90;;;2.70;;
2934;SDS011;2462;51.456;7.248;2022-07-22T06:21:25;6.13;;;3.10;;
2934;SDS011;2462;51.456;7.248;2022-07-22T06:23:51;3.67;;;3.17;;
2934;SDS011;2462;51.456;7.248;2022-07-22T06:26:16;3.20;;;2.87;;
2934;SDS011;2462;51.456;7.248;2022-07-22T06:28:42;7.43;;;3.63;;
2934;SDS011;2462;51.456;7.248;2022-07-22T06:31:08;7.20;;;3.13;;
2934;SDS011;2462;51.456;7.248;2022-07-22T06:33:33;3.47;;;2.50;;
2934;SDS011;2462;51.456;7.248;2022-07-22T06:35:59;4.97;;;3.10;;
2934;SDS011;2462;51.456;7.248;2022-07-22T06:38:25;6.20;;;2.60;;
2934;SDS011;2462;51.456;7.248;2022-07-22T06:40:50;5.17;;;2.43;;
2934;SDS011;2462;51.456;7.248;2022-07-22T06:43:16;5.77;;;2.60;;
2934;SDS011;2462;51.456;7.248;2022-07-22T06:45:41;7.03;;;2.67;;
2934;SDS011;2462;51.456;7.248;2022-07-22T06:48:07;8.73;;;3.03;;
2934;SDS011;2462;51.456;7.248;2022-07-22T06:50:32;5.93;;;2.70;;
2934;SDS011;2462;51.456;7.248;2022-07-22T06:52:58;5.13;;;2.63;;
2934;SDS011;2462;51.456;7.248;2022-07-22T06:55:26;5.17;;;2.93;;
2934;SDS011;2462;51.456;7.248;2022-07-22T06:57:51;7.47;;;2.60;;
2934;SDS011;2462;51.456;7.248;2022-07-22T07:00:17;3.33;;;2.20;;
2934;SDS011;2462;51.456;7.248;2022-07-22T07:02:43;3.60;;;2.50;;
2934;SDS011;2462;51.456;7.248;2022-07-22T07:05:10;8.13;;;2.90;;
2934;SDS011;2462;51.456;7.248;2022-07-22T07:07:36;5.30;;;2.90;;
2934;SDS011;2462;51.456;7.248;2022-07-22T07:10:02;7.20;;;3.10;;
2934;SDS011;2462;51.456;7.248;2022-07-22T07:12:28;4.93;;;2.30;;
2934;SDS011;2462;51.456;7.248;2022-07-22T07:14:54;3.10;;;2.40;;
2934;SDS011;2462;51.456;7.248;2022-07-22T07:17:19;3.20;;;2.87;;
2934;SDS011;2462;51.456;7.248;2022-07-22T07:19:45;6.37;;;3.57;;
2934;SDS011;2462;51.456;7.248;2022-07-22T07:22:10;4.57;;;2.83;;
2934;SDS011;2462;51.456;7.248;2022-07-22T07:24:36;3.33;;;2.63;;
2934;SDS011;2462;51.456;7.248;2022-07-22T07:27:01;5.40;;;2.83;;
2934;SDS011;2462;51.456;7.248;2022-07-22T07:29:27;6.13;;;2.53;;
2934;SDS011;2462;51.456;7.248;2022-07-22T07:31:52;4.60;;;3.30;;
2934;SDS011;2462;51.456;7.248;2022-07-22T07:34:18;5.20;;;3.70;;
2934;SDS011;2462;51.456;7.248;2022-07-22T07:36:43;6.37;;;4.83;;
2934;SDS011;2462;51.456;7.248;2022-07-22T07:39:09;6.87;;;4.73;;
2934;SDS011;2462;51.456;7.248;2022-07-22T07:41:34;6.23;;;5.20;;
2934;SDS011;2462;51.456;7.248;2022-07-22T07:44:00;6.43;;;5.53;;
2934;SDS011;2462;51.456;7.248;2022-07-22T07:46:25;6.57;;;5.83;;
2934;SDS011;2462;51.456;7.248;2022-07-22T07:48:51;6.03;;;5.20;;
2934;SDS011;2462;51.456;7.248;2022-07-22T07:51:17;7.20;;;6.40;;
2934;SDS011;2462;51.456;7.248;2022-07-22T07:53:42;7.70;;;6.77;;
2934;SDS011;2462;51.456;7.248;2022-07-22T07:56:08;11.70;;;6.47;;
2934;SDS011;2462;51.456;7.248;2022-07-22T07:58:33;8.90;;;6.70;;
2934;SDS011;2462;51.456;7.248;2022-07-22T08:00:59;8.63;;;6.93;;
2934;SDS011;2462;51.456;7.248;2022-07-22T08:03:24;8.40;;;5.80;;
2934;SDS011;2462;51.456;7.248;2022-07-22T08:05:50;6.60;;;5.80;;
2934;SDS011;2462;51.456;7.248;2022-07-22T08:08:15;6.93;;;4.90;;
2934;SDS011;2462;51.456;7.248;2022-07-22T08:10:41;5.77;;;5.27;;
2934;SDS011;2462;51.456;7.248;2022-07-22T08:13:07;9.37;;;6.43;;
2934;SDS011;2462;51.456;7.248;2022-07-22T08:15:32;7.83;;;5.80;;
2934;SDS011;2462;51.456;7.248;2022-07-22T08:17:58;6.20;;;5.60;;
2934;SDS011;2462;51.456;7.248;2022-07-22T08:20:24;9.00;;;7.50;;
2934;SDS011;2462;51.456;7.248;2022-07-22T08:22:50;7.13;;;6.07;;
2934;SDS011;2462;51.456;7.248;2022-07-22T08:25:16;10.77;;;6.27;;
2934;SDS011;2462;51.456;7.248;2022-07-22T08:27:42;8.17;;;5.83;;
2934;SDS011;2462;51.456;7.248;2022-07-22T08:30:08;8.50;;;6.40;;
2934;SDS011;2462;51.456;7.248;2022-07-22T08:32:34;7.37;;;6.53;;
2934;SDS011;2462;51.456;7.248;2022-07-22T08:35:00;8.40;;;6.33;;
2934;SDS011;2462;51.456;7.248;2022-07-22T08:37:25;10.00;;;6.83;;
2934;SDS011;2462;51.456;7.248;2022-07-22T08:39:51;10.10;;;7.23;;
2934;SDS011;2462;51.456;7.248;2022-07-22T08:42:18;7.20;;;6.50;;
2934;SDS011;2462;51.456;7.248;2022-07-22T08:44:47;8.77;;;6.97;;
2934;SDS011;2462;51.456;7.248;2022-07-22T08:47:14;8.70;;;7.17;;
2934;SDS011;2462;51.456;7.248;2022-07-22T08:49:39;7.80;;;7.10;;
2934;SDS011;2462;51.456;7.248;2022-07-22T08:52:05;8.00;;;6.73;;
2934;SDS011;2462;51.456;7.248;2022-07-22T08:54:31;8.50;;;7.57;;
2934;SDS011;2462;51.456;7.248;2022-07-22T08:56:56;10.40;;;8.03;;
2934;SDS011;2462;51.456;7.248;2022-07-22T08:59:22;13.40;;;7.37;;
2934;SDS011;2462;51.456;7.248;2022-07-22T09:04:28;8.33;;;7.20;;
2934;SDS011;2462;51.456;7.248;2022-07-22T09:06:56;9.30;;;7.17;;
2934;SDS011;2462;51.456;7.248;2022-07-22T09:09:32;7.90;;;7.10;;
2934;SDS011;2462;51.456;7.248;2022-07-22T09:12:08;11.70;;;7.80;;
2934;SDS011;2462;51.456;7.248;2022-07-22T09:14:47;9.20;;;7.43;;
2934;SDS011;2462;51.456;7.248;2022-07-22T09:17:26;11.70;;;7.70;;
2934;SDS011;2462;51.456;7.248;2022-07-22T09:19:57;9.63;;;7.70;;
2934;SDS011;2462;51.456;7.248;2022-07-22T09:24:56;9.37;;;7.70;;
2934;SDS011;2462;51.456;7.248;2022-07-22T09:27:22;9.70;;;8.60;;
2934;SDS011;2462;51.456;7.248;2022-07-22T09:29:49;9.37;;;8.33;;
2934;SDS011;2462;51.456;7.248;2022-07-22T09:32:15;9.90;;;7.80;;
2934;SDS011;2462;51.456;7.248;2022-07-22T09:34:40;14.53;;;9.07;;
2934;SDS011;2462;51.456;7.248;2022-07-22T09:37:06;10.37;;;8.20;;
2934;SDS011;2462;51.456;7.248;2022-07-22T09:39:32;11.20;;;9.07;;
2934;SDS011;2462;51.456;7.248;2022-07-22T09:42:02;10.20;;;8.63;;
2934;SDS011;2462;51.456;7.248;2022-07-22T09:44:29;9.97;;;8.83;;
2934;SDS011;2462;51.456;7.248;2022-07-22T09:46:54;11.43;;;8.70;;
2934;SDS011;2462;51.456;7.248;2022-07-22T09:49:33;9.80;;;8.70;;
2934;SDS011;2462;51.456;7.248;2022-07-22T09:52:00;20.80;;;10.13;;
2934;SDS011;2462;51.456;7.248;2022-07-22T09:54:27;16.07;;;9.40;;
2934;SDS011;2462;51.456;7.248;2022-07-22T09:56:54;9.90;;;8.83;;
2934;SDS011;2462;51.456;7.248;2022-07-22T09:59:19;11.53;;;9.57;;
2934;SDS011;2462;51.456;7.248;2022-07-22T10:01:45;10.60;;;9.50;;
2934;SDS011;2462;51.456;7.248;2022-07-22T10:04:15;12.30;;;10.77;;
2934;SDS011;2462;51.456;7.248;2022-07-22T10:06:43;10.17;;;9.00;;
2934;SDS011;2462;51.456;7.248;2022-07-22T10:09:09;11.80;;;8.63;;
2934;SDS011;2462;51.456;7.248;2022-07-22T10:11:38;13.40;;;9.90;;
2934;SDS011;2462;51.456;7.248;2022-07-22T10:14:09;17.33;;;10.27;;
2934;SDS011;2462;51.456;7.248;2022-07-22T10:16:39;13.20;;;10.70;;
2934;SDS011;2462;51.456;7.248;2022-07-22T10:19:05;12.27;;;9.20;;
2934;SDS011;2462;51.456;7.248;2022-07-22T10:21:32;10.40;;;9.40;;
2934;SDS011;2462;51.456;7.248;2022-07-22T10:26:46;10.60;;;9.50;;
2934;SDS011;2462;51.456;7.248;2022-07-22T10:32:11;12.90;;;10.10;;
2934;SDS011;2462;51.456;7.248;2022-07-22T10:40:19;12.67;;;10.77;;
2934;SDS011;2462;51.456;7.248;2022-07-22T10:45:30;12.63;;;10.50;;
2934;SDS011;2462;51.456;7.248;2022-07-22T10:47:58;11.60;;;10.40;;
2934;SDS011;2462;51.456;7.248;2022-07-22T10:53:01;18.90;;;12.20;;
2934;SDS011;2462;51.456;7.248;2022-07-22T10:55:28;11.93;;;10.57;;
2934;SDS011;2462;51.456;7.248;2022-07-22T10:57:54;12.57;;;10.50;;
2934;SDS011;2462;51.456;7.248;2022-07-22T11:00:19;14.30;;;11.70;;
2934;SDS011;2462;51.456;7.248;2022-07-22T11:02:45;13.77;;;10.53;;
2934;SDS011;2462;51.456;7.248;2022-07-22T11:05:11;14.63;;;11.00;;
2934;SDS011;2462;51.456;7.248;2022-07-22T11:07:46;14.50;;;11.10;;
2934;SDS011;2462;51.456;7.248;2022-07-22T11:10:13;19.70;;;12.50;;
2934;SDS011;2462;51.456;7.248;2022-07-22T11:12:41;15.30;;;12.00;;
2934;SDS011;2462;51.456;7.248;2022-07-22T11:15:06;13.43;;;11.87;;
2934;SDS011;2462;51.456;7.248;2022-07-22T11:17:33;15.77;;;12.00;;
2934;SDS011;2462;51.456;7.248;2022-07-22T11:20:00;12.50;;;10.80;;
2934;SDS011;2462;51.456;7.248;2022-07-22T11:22:27;14.03;;;12.20;;
2934;SDS011;2462;51.456;7.248;2022-07-22T11:24:52;17.83;;;12.43;;
2934;SDS011;2462;51.456;7.248;2022-07-22T11:27:19;15.87;;;11.60;;
2934;SDS011;2462;51.456;7.248;2022-07-22T11:29:48;15.53;;;12.33;;
2934;SDS011;2462;51.456;7.248;2022-07-22T11:32:16;19.37;;;12.97;;
2934;SDS011;2462;51.456;7.248;2022-07-22T11:34:42;16.37;;;12.03;;
2934;SDS011;2462;51.456;7.248;2022-07-22T11:37:15;17.70;;;11.83;;
2934;SDS011;2462;51.456;7.248;2022-07-22T11:39:48;19.00;;;12.10;;
2934;SDS011;2462;51.456;7.248;2022-07-22T11:42:13;19.00;;;12.30;;
2934;SDS011;2462;51.456;7.248;2022-07-22T11:44:39;17.00;;;11.90;;
2934;SDS011;2462;51.456;7.248;2022-07-22T11:47:05;17.70;;;12.27;;
2934;SDS011;2462;51.456;7.248;2022-07-22T11:49:33;16.53;;;11.80;;
2934;SDS011;2462;51.456;7.248;2022-07-22T11:52:00;15.40;;;11.70;;
2934;SDS011;2462;51.456;7.248;2022-07-22T11:54:27;16.33;;;12.07;;
2934;SDS011;2462;51.456;7.248;2022-07-22T11:56:52;20.73;;;13.10;;
2934;SDS011;2462;51.456;7.248;2022-07-22T11:59:18;21.47;;;14.17;;
2934;SDS011;2462;51.456;7.248;2022-07-22T12:01:45;19.03;;;12.27;;
2934;SDS011;2462;51.456;7.248;2022-07-22T12:04:22;18.57;;;12.30;;
2934;SDS011;2462;51.456;7.248;2022-07-22T12:06:49;20.70;;;13.60;;
2934;SDS011;2462;51.456;7.248;2022-07-22T12:09:22;19.77;;;13.50;;
2934;SDS011;2462;51.456;7.248;2022-07-22T12:11:50;19.40;;;12.93;;
2934;SDS011;2462;51.456;7.248;2022-07-22T12:14:23;18.77;;;13.37;;
2934;SDS011;2462;51.456;7.248;2022-07-22T12:17:07;17.40;;;12.13;;
2934;SDS011;2462;51.456;7.248;2022-07-22T12:19:37;19.07;;;12.40;;
2934;SDS011;2462;51.456;7.248;2022-07-22T12:22:05;16.27;;;12.40;;
2934;SDS011;2462;51.456;7.248;2022-07-22T12:24:36;21.67;;;14.00;;
2934;SDS011;2462;51.456;7.248;2022-07-22T12:27:05;18.80;;;13.23;;
2934;SDS011;2462;51.456;7.248;2022-07-22T12:32:03;20.73;;;13.67;;
2934;SDS011;2462;51.456;7.248;2022-07-22T12:36:55;25.10;;;14.67;;
2934;SDS011;2462;51.456;7.248;2022-07-22T12:39:21;23.10;;;14.10;;
2934;SDS011;2462;51.456;7.248;2022-07-22T12:41:48;20.80;;;12.40;;
2934;SDS011;2462;51.456;7.248;2022-07-22T12:44:21;21.60;;;12.20;;
2934;SDS011;2462;51.456;7.248;2022-07-22T12:46:50;24.07;;;15.27;;
2934;SDS011;2462;51.456;7.248;2022-07-22T12:49:21;29.33;;;15.87;;
2934;SDS011;2462;51.456;7.248;2022-07-22T12:52:04;21.83;;;15.13;;
2934;SDS011;2462;51.456;7.248;2022-07-22T12:54:35;23.30;;;15.13;;
2934;SDS011;2462;51.456;7.248;2022-07-22T12:57:03;21.00;;;13.83;;
2934;SDS011;2462;51.456;7.248;2022-07-22T12:59:29;19.53;;;14.47;;
2934;SDS011;2462;51.456;7.248;2022-07-22T13:01:55;23.50;;;14.90;;
2934;SDS011;2462;51.456;7.248;2022-07-22T13:04:21;23.87;;;13.30;;
2934;SDS011;2462;51.456;7.248;2022-07-22T13:06:47;21.13;;;14.80;;
2934;SDS011;2462;51.456;7.248;2022-07-22T13:09:13;22.50;;;14.90;;
2934;SDS011;2462;51.456;7.248;2022-07-22T13:11:39;20.97;;;15.30;;
2934;SDS011;2462;51.456;7.248;2022-07-22T13:14:08;26.20;;;16.70;;
2934;SDS011;2462;51.456;7.248;2022-07-22T13:16:34;25.13;;;17.43;;
2934;SDS011;2462;51.456;7.248;2022-07-22T13:19:00;25.40;;;16.10;;
2934;SDS011;2462;51.456;7.248;2022-07-22T13:21:25;27.60;;;16.90;;
2934;SDS011;2462;51.456;7.248;2022-07-22T13:23:51;24.67;;;16.20;;
2934;SDS011;2462;51.456;7.248;2022-07-22T13:26:16;25.03;;;15.60;;
2934;SDS011;2462;51.456;7.248;2022-07-22T13:28:42;23.73;;;16.50;;
2934;SDS011;2462;51.456;7.248;2022-07-22T13:31:08;24.33;;;14.30;;
2934;SDS011;2462;51.456;7.248;2022-07-22T13:33:34;22.10;;;15.13;;
2934;SDS011;2462;51.456;7.248;2022-07-22T13:36:00;16.67;;;14.10;;
2934;SDS011;2462;51.456;7.248;2022-07-22T13:38:26;19.83;;;14.77;;
2934;SDS011;2462;51.456;7.248;2022-07-22T13:40:51;19.67;;;14.87;;
2934;SDS011;2462;51.456;7.248;2022-07-22T13:43:18;22.23;;;14.50;;
2934;SDS011;2462;51.456;7.248;2022-07-22T13:45:48;23.10;;;15.60;;
2934;SDS011;2462;51.456;7.248;2022-07-22T13:48:14;22.33;;;15.50;;
2934;SDS011;2462;51.456;7.248;2022-07-22T13:50:39;21.13;;;14.60;;
2934;SDS011;2462;51.456;7.248;2022-07-22T13:53:05;24.10;;;15.87;;
2934;SDS011;2462;51.456;7.248;2022-07-22T13:55:31;20.40;;;15.07;;
2934;SDS011;2462;51.456;7.248;2022-07-22T13:57:57;19.50;;;14.90;;
2934;SDS011;2462;51.456;7.248;2022-07-22T14:00:23;17.33;;;13.77;;
2934;SDS011;2462;51.456;7.248;2022-07-22T14:02:49;20.17;;;14.67;;
2934;SDS011;2462;51.456;7.248;2022-07-22T14:05:14;21.37;;;15.33;;
2934;SDS011;2462;51.456;7.248;2022-07-22T14:07:40;21.77;;;15.73;;
2934;SDS011;2462;51.456;7.248;2022-07-22T14:10:06;25.83;;;15.50;;
2934;SDS011;2462;51.456;7.248;2022-07-22T14:12:32;21.97;;;15.40;;
2934;SDS011;2462;51.456;7.248;2022-07-22T14:14:57;21.17;;;14.67;;
2934;SDS011;2462;51.456;7.248;2022-07-22T14:17:23;22.70;;;14.87;;
2934;SDS011;2462;51.456;7.248;2022-07-22T14:19:48;21.10;;;15.00;;
2934;SDS011;2462;51.456;7.248;2022-07-22T14:22:14;19.73;;;14.50;;
2934;SDS011;2462;51.456;7.248;2022-07-22T14:24:39;19.87;;;14.80;;
2934;SDS011;2462;51.456;7.248;2022-07-22T14:27:05;20.80;;;14.20;;
2934;SDS011;2462;51.456;7.248;2022-07-22T14:29:30;22.80;;;16.00;;
2934;SDS011;2462;51.456;7.248;2022-07-22T14:31:56;24.53;;;16.67;;
2934;SDS011;2462;51.456;7.248;2022-07-22T14:34:21;21.37;;;15.63;;
2934;SDS011;2462;51.456;7.248;2022-07-22T14:36:47;21.40;;;14.90;;
2934;SDS011;2462;51.456;7.248;2022-07-22T14:39:13;24.30;;;15.57;;
2934;SDS011;2462;51.456;7.248;2022-07-22T14:41:38;19.93;;;13.70;;
2934;SDS011;2462;51.456;7.248;2022-07-22T14:44:04;18.43;;;13.90;;
2934;SDS011;2462;51.456;7.248;2022-07-22T14:46:29;20.90;;;14.43;;
2934;SDS011;2462;51.456;7.248;2022-07-22T14:48:55;20.17;;;14.13;;
2934;SDS011;2462;51.456;7.248;2022-07-22T14:51:21;18.50;;;15.30;;
2934;SDS011;2462;51.456;7.248;2022-07-22T14:53:47;19.67;;;14.77;;
2934;SDS011;2462;51.456;7.248;2022-07-22T14:56:14;20.20;;;15.23;;
2934;SDS011;2462;51.456;7.248;2022-07-22T14:58:39;22.43;;;15.17;;
2934;SDS011;2462;51.456;7.248;2022-07-22T15:01:05;19.90;;;14.33;;
2934;SDS011;2462;51.456;7.248;2022-07-22T15:03:30;21.43;;;15.10;;
2934;SDS011;2462;51.456;7.248;2022-07-22T15:05:56;19.80;;;15.00;;
2934;SDS011;2462;51.456;7.248;2022-07-22T15:08:21;20.47;;;15.80;;
2934;SDS011;2462;51.456;7.248;2022-07-22T15:10:47;18.57;;;14.30;;
2934;SDS011;2462;51.456;7.248;2022-07-22T15:13:13;21.30;;;14.07;;
2934;SDS011;2462;51.456;7.248;2022-07-22T15:15:38;23.43;;;15.03;;
2934;SDS011;2462;51.456;7.248;2022-07-22T15:18:04;18.17;;;14.00;;
2934;SDS011;2462;51.456;7.248;2022-07-22T15:20:30;21.63;;;13.97;;
2934;SDS011;2462;51.456;7.248;2022-07-22T15:22:55;18.93;;;14.40;;
2934;SDS011;2462;51.456;7.248;2022-07-22T15:25:21;20.00;;;15.23;;
2934;SDS011;2462;51.456;7.248;2022-07-22T15:27:48;19.83;;;14.63;;